sensor_id;sensor_type;location;lat;lon;timestamp;temperature;humidity
23323;DHT22;11833;52.554;13.554;2023-09-12T13:15:11;38.00;41.40
23323;DHT22;11833;52.554;13.554;2023-09-12T13:21:52;38.50;41.50
23323;DHT22;11833;52.554;13.554;2023-09-12T13:24:18;38.70;40.70
23323;DHT22;11833;52.554;13.554;2023-09-12T13:26:44;38.90;39.50
23323;DHT22;11833;52.554;13.554;2023-09-12T13:29:09;39.10;40.70
23323;DHT22;11833;52.554;13.554;2023-09-12T13:31:35;39.30;40.10
23323;DHT22;11833;52.554;13.554;2023-09-12T13:34:01;39.40;39.30
23323;DHT22;11833;52.554;13.554;2023-09-12T13:36:28;39.60;39.00
23323;DHT22;11833;52.554;13.554;2023-09-12T13:38:54;39.80;38.80
23323;DHT22;11833;52.554;13.554;2023-09-12T13:41:19;40.10;37.90
23323;DHT22;11833;52.554;13.554;2023-09-12T13:43:47;40.10;38.00
23323;DHT22;11833;52.554;13.554;2023-09-12T13:46:13;40.30;37.10
23323;DHT22;11833;52.554;13.554;2023-09-12T13:48:39;40.30;37.20
23323;DHT22;11833;52.554;13.554;2023-09-12T13:51:05;40.50;37.10
23323;DHT22;11833;52.554;13.554;2023-09-12T13:53:31;40.60;36.80
23323;DHT22;11833;52.554;13.554;2023-09-12T13:55:57;40.60;36.50
23323;DHT22;11833;52.554;13.554;2023-09-12T13:58:23;40.50;37.70
23323;DHT22;11833;52.554;13.554;2023-09-12T14:00:49;40.50;37.70
23323;DHT22;11833;52.554;13.554;2023-09-12T14:03:15;40.50;36.40
23323;DHT22;11833;52.554;13.554;2023-09-12T14:05:41;40.50;36.20
23323;DHT22;11833;52.554;13.554;2023-09-12T14:08:07;40.60;35.90
23323;DHT22;11833;52.554;13.554;2023-09-12T14:10:32;40.70;37.00
23323;DHT22;11833;52.554;13.554;2023-09-12T14:12:58;40.40;35.50
23323;DHT22;11833;52.554;13.554;2023-09-12T14:15:24;40.20;35.10
23323;DHT22;11833;52.554;13.554;2023-09-12T14:17:51;39.80;37.10
23323;DHT22;11833;52.554;13.554;2023-09-12T14:20:17;39.50;37.30
23323;DHT22;11833;52.554;13.554;2023-09-12T14:22:43;39.50;36.40
23323;DHT22;11833;52.554;13.554;2023-09-12T14:25:10;39.60;36.90
23323;DHT22;11833;52.554;13.554;2023-09-12T14:27:41;39.20;36.60
23323;DHT22;11833;52.554;13.554;2023-09-12T14:30:08;38.30;38.40
23323;DHT22;11833;52.554;13.554;2023-09-12T14:32:34;38.50;37.70
23323;DHT22;11833;52.554;13.554;2023-09-12T14:35:00;38.60;36.50
23323;DHT22;11833;52.554;13.554;2023-09-12T14:37:25;38.70;37.10
23323;DHT22;11833;52.554;13.554;2023-09-12T14:39:53;38.80;37.50
23323;DHT22;11833;52.554;13.554;2023-09-12T14:42:20;38.70;37.40
23323;DHT22;11833;52.554;13.554;2023-09-12T14:44:46;38.10;37.40
23323;DHT22;11833;52.554;13.554;2023-09-12T14:47:12;37.50;38.60
23323;DHT22;11833;52.554;13.554;2023-09-12T14:49:37;37.00;39.40
23323;DHT22;11833;52.554;13.554;2023-09-12T14:52:03;36.40;40.80
23323;DHT22;11833;52.554;13.554;2023-09-12T14:54:29;35.80;41.70
23323;DHT22;11833;52.554;13.554;2023-09-12T14:56:55;35.40;42.50
23323;DHT22;11833;52.554;13.554;2023-09-12T14:59:21;35.00;42.90
23323;DHT22;11833;52.554;13.554;2023-09-12T15:01:47;34.90;43.30
23323;DHT22;11833;52.554;13.554;2023-09-12T15:04:13;34.60;43.90
23323;DHT22;11833;52.554;13.554;2023-09-12T15:06:39;34.30;44.50
23323;DHT22;11833;52.554;13.554;2023-09-12T15:09:05;34.20;45.70
23323;DHT22;11833;52.554;13.554;2023-09-12T15:11:31;34.00;47.10
23323;DHT22;11833;52.554;13.554;2023-09-12T15:13:57;33.40;49.00
23323;DHT22;11833;52.554;13.554;2023-09-12T15:16:25;33.70;49.20
23323;DHT22;11833;52.554;13.554;2023-09-12T15:18:51;33.90;48.50
23323;DHT22;11833;52.554;13.554;2023-09-12T15:21:18;34.00;48.00
23323;DHT22;11833;52.554;13.554;2023-09-12T15:23:43;33.70;48.40
23323;DHT22;11833;52.554;13.554;2023-09-12T15:26:09;33.70;48.40
23323;DHT22;11833;52.554;13.554;2023-09-12T15:28:35;33.90;48.00
23323;DHT22;11833;52.554;13.554;2023-09-12T15:31:00;34.20;47.60
23323;DHT22;11833;52.554;13.554;2023-09-12T15:33:29;34.40;47.00
23323;DHT22;11833;52.554;13.554;2023-09-12T15:35:55;34.50;47.10
23323;DHT22;11833;52.554;13.554;2023-09-12T15:38:21;34.70;47.40
23323;DHT22;11833;52.554;13.554;2023-09-12T15:40:47;34.90;46.80
23323;DHT22;11833;52.554;13.554;2023-09-12T15:43:13;35.10;46.30
23323;DHT22;11833;52.554;13.554;2023-09-12T15:45:39;35.20;46.00
23323;DHT22;11833;52.554;13.554;2023-09-12T15:48:05;35.30;45.50
23323;DHT22;11833;52.554;13.554;2023-09-12T15:50:31;34.80;46.40
23323;DHT22;11833;52.554;13.554;2023-09-12T15:52:57;34.10;47.20
23323;DHT22;11833;52.554;13.554;2023-09-12T15:55:22;33.90;47.90
23323;DHT22;11833;52.554;13.554;2023-09-12T15:57:50;33.50;48.50
23323;DHT22;11833;52.554;13.554;2023-09-12T16:00:16;33.20;49.40
23323;DHT22;11833;52.554;13.554;2023-09-12T16:02:42;32.90;50.20
23323;DHT22;11833;52.554;13.554;2023-09-12T16:05:09;33.10;50.00
23323;DHT22;11833;52.554;13.554;2023-09-12T16:07:35;33.10;49.90
23323;DHT22;11833;52.554;13.554;2023-09-12T16:10:01;33.10;50.10
23323;DHT22;11833;52.554;13.554;2023-09-12T16:12:27;32.90;50.90
23323;DHT22;11833;52.554;13.554;2023-09-12T16:14:54;33.00;50.40
23323;DHT22;11833;52.554;13.554;2023-09-12T16:17:23;33.20;49.70
23323;DHT22;11833;52.554;13.554;2023-09-12T16:19:49;33.10;49.80
23323;DHT22;11833;52.554;13.554;2023-09-12T16:22:15;33.00;50.10
23323;DHT22;11833;52.554;13.554;2023-09-12T16:24:41;32.70;50.50
23323;DHT22;11833;52.554;13.554;2023-09-12T16:27:07;32.60;50.70
23323;DHT22;11833;52.554;13.554;2023-09-12T16:29:32;32.30;51.40
23323;DHT22;11833;52.554;13.554;2023-09-12T16:31:58;32.20;51.40
23323;DHT22;11833;52.554;13.554;2023-09-12T16:34:26;32.20;51.60
23323;DHT22;11833;52.554;13.554;2023-09-12T16:36:52;32.00;52.10
23323;DHT22;11833;52.554;13.554;2023-09-12T16:39:18;31.90;52.40
23323;DHT22;11833;52.554;13.554;2023-09-12T16:41:44;31.70;52.80
23323;DHT22;11833;52.554;13.554;2023-09-12T16:44:10;31.50;52.90
23323;DHT22;11833;52.554;13.554;2023-09-12T16:46:36;31.40;53.30
23323;DHT22;11833;52.554;13.554;2023-09-12T16:49:01;31.20;53.90
23323;DHT22;11833;52.554;13.554;2023-09-12T16:51:27;31.00;54.20
23323;DHT22;11833;52.554;13.554;2023-09-12T16:53:54;30.90;54.80
23323;DHT22;11833;52.554;13.554;2023-09-12T16:56:19;30.80;54.90
23323;DHT22;11833;52.554;13.554;2023-09-12T16:58:45;30.70;55.30
23323;DHT22;11833;52.554;13.554;2023-09-12T17:01:11;30.50;55.70
23323;DHT22;11833;52.554;13.554;2023-09-12T17:03:37;30.30;56.60
23323;DHT22;11833;52.554;13.554;2023-09-12T17:06:02;30.30;56.60
23323;DHT22;11833;52.554;13.554;2023-09-12T17:08:28;30.20;56.20
23323;DHT22;11833;52.554;13.554;2023-09-12T17:10:54;30.00;57.00
23323;DHT22;11833;52.554;13.554;2023-09-12T17:13:20;30.00;57.30
23323;DHT22;11833;52.554;13.554;2023-09-12T17:15:46;30.00;57.50
23323;DHT22;11833;52.554;13.554;2023-09-12T17:18:12;29.80;57.50
23323;DHT22;11833;52.554;13.554;2023-09-12T17:20:38;29.80;57.50
23323;DHT22;11833;52.554;13.554;2023-09-12T17:23:04;29.80;57.80
23323;DHT22;11833;52.554;13.554;2023-09-12T17:25:29;29.80;57.80
23323;DHT22;11833;52.554;13.554;2023-09-12T17:27:55;29.80;57.50
23323;DHT22;11833;52.554;13.554;2023-09-12T17:30:21;29.60;57.70
23323;DHT22;11833;52.554;13.554;2023-09-12T17:32:47;29.30;58.20
23323;DHT22;11833;52.554;13.554;2023-09-12T17:35:14;29.10;58.90
23323;DHT22;11833;52.554;13.554;2023-09-12T17:37:40;29.00;59.00
23323;DHT22;11833;52.554;13.554;2023-09-12T17:40:06;28.90;59.60
23323;DHT22;11833;52.554;13.554;2023-09-12T17:42:33;28.80;59.70
23323;DHT22;11833;52.554;13.554;2023-09-12T17:45:00;28.80;59.60
23323;DHT22;11833;52.554;13.554;2023-09-12T17:47:26;28.70;59.90
23323;DHT22;11833;52.554;13.554;2023-09-12T17:49:53;28.60;60.10
23323;DHT22;11833;52.554;13.554;2023-09-12T17:52:19;28.60;60.10
23323;DHT22;11833;52.554;13.554;2023-09-12T17:54:45;28.50;60.60
23323;DHT22;11833;52.554;13.554;2023-09-12T17:57:10;28.30;60.60
23323;DHT22;11833;52.554;13.554;2023-09-12T17:59:37;28.40;60.10
23323;DHT22;11833;52.554;13.554;2023-09-12T18:02:07;28.40;60.60
23323;DHT22;11833;52.554;13.554;2023-09-12T18:04:35;28.20;61.00
23323;DHT22;11833;52.554;13.554;2023-09-12T18:07:02;28.00;61.40
23323;DHT22;11833;52.554;13.554;2023-09-12T18:09:28;28.00;61.80
23323;DHT22;11833;52.554;13.554;2023-09-12T18:11:55;27.90;62.00
23323;DHT22;11833;52.554;13.554;2023-09-12T18:14:21;27.90;61.70
23323;DHT22;11833;52.554;13.554;2023-09-12T18:16:49;27.90;61.90
23323;DHT22;11833;52.554;13.554;2023-09-12T18:19:15;27.90;62.00
23323;DHT22;11833;52.554;13.554;2023-09-12T18:21:41;27.80;62.00
23323;DHT22;11833;52.554;13.554;2023-09-12T18:24:06;27.70;62.30
23323;DHT22;11833;52.554;13.554;2023-09-12T18:26:32;27.80;62.60
23323;DHT22;11833;52.554;13.554;2023-09-12T18:28:58;27.80;62.50
23323;DHT22;11833;52.554;13.554;2023-09-12T18:31:27;27.70;62.50
23323;DHT22;11833;52.554;13.554;2023-09-12T18:33:52;27.60;62.70
23323;DHT22;11833;52.554;13.554;2023-09-12T18:36:18;27.50;63.30
23323;DHT22;11833;52.554;13.554;2023-09-12T18:38:44;27.50;63.30
23323;DHT22;11833;52.554;13.554;2023-09-12T18:41:11;27.50;63.40
23323;DHT22;11833;52.554;13.554;2023-09-12T18:43:37;27.40;63.70
23323;DHT22;11833;52.554;13.554;2023-09-12T18:46:06;27.30;63.90
23323;DHT22;11833;52.554;13.554;2023-09-12T18:48:32;27.20;64.10
23323;DHT22;11833;52.554;13.554;2023-09-12T18:51:01;27.10;64.00
23323;DHT22;11833;52.554;13.554;2023-09-12T18:53:26;27.10;64.50
23323;DHT22;11833;52.554;13.554;2023-09-12T18:55:52;27.00;64.80
23323;DHT22;11833;52.554;13.554;2023-09-12T18:58:18;27.10;64.80
23323;DHT22;11833;52.554;13.554;2023-09-12T19:00:44;27.00;65.10
23323;DHT22;11833;52.554;13.554;2023-09-12T19:03:11;27.00;65.70
23323;DHT22;11833;52.554;13.554;2023-09-12T19:05:40;26.90;65.90
23323;DHT22;11833;52.554;13.554;2023-09-12T19:08:10;26.90;65.60
23323;DHT22;11833;52.554;13.554;2023-09-12T19:10:37;27.00;65.10
23323;DHT22;11833;52.554;13.554;2023-09-12T19:13:03;26.90;65.30
23323;DHT22;11833;52.554;13.554;2023-09-12T19:15:31;26.80;66.00
23323;DHT22;11833;52.554;13.554;2023-09-12T19:17:57;26.70;66.30
23323;DHT22;11833;52.554;13.554;2023-09-12T19:20:22;26.60;67.00
23323;DHT22;11833;52.554;13.554;2023-09-12T19:22:48;26.70;67.40
23323;DHT22;11833;52.554;13.554;2023-09-12T19:25:16;26.60;67.20
23323;DHT22;11833;52.554;13.554;2023-09-12T19:27:42;26.60;67.60
23323;DHT22;11833;52.554;13.554;2023-09-12T19:30:08;26.60;67.80
23323;DHT22;11833;52.554;13.554;2023-09-12T19:32:37;26.50;68.00
23323;DHT22;11833;52.554;13.554;2023-09-12T19:35:05;26.50;68.00
23323;DHT22;11833;52.554;13.554;2023-09-12T19:37:33;26.40;68.40
23323;DHT22;11833;52.554;13.554;2023-09-12T19:40:00;26.30;69.10
23323;DHT22;11833;52.554;13.554;2023-09-12T19:42:25;26.30;69.10
23323;DHT22;11833;52.554;13.554;2023-09-12T19:44:51;26.30;69.20
23323;DHT22;11833;52.554;13.554;2023-09-12T19:47:19;26.20;69.80
23323;DHT22;11833;52.554;13.554;2023-09-12T19:49:45;26.20;69.90
23323;DHT22;11833;52.554;13.554;2023-09-12T19:52:11;26.20;69.90
23323;DHT22;11833;52.554;13.554;2023-09-12T19:54:41;26.20;70.00
23323;DHT22;11833;52.554;13.554;2023-09-12T19:57:06;26.10;69.80
23323;DHT22;11833;52.554;13.554;2023-09-12T19:59:33;26.10;70.30
23323;DHT22;11833;52.554;13.554;2023-09-12T20:02:00;26.00;70.60
23323;DHT22;11833;52.554;13.554;2023-09-12T20:04:26;26.00;70.80
23323;DHT22;11833;52.554;13.554;2023-09-12T20:06:54;25.90;70.90
23323;DHT22;11833;52.554;13.554;2023-09-12T20:09:21;25.90;71.30
23323;DHT22;11833;52.554;13.554;2023-09-12T20:11:47;25.80;71.60
23323;DHT22;11833;52.554;13.554;2023-09-12T20:14:13;25.70;71.70
23323;DHT22;11833;52.554;13.554;2023-09-12T20:16:40;25.70;71.70
23323;DHT22;11833;52.554;13.554;2023-09-12T20:19:06;25.70;72.10
23323;DHT22;11833;52.554;13.554;2023-09-12T20:21:34;25.70;72.30
23323;DHT22;11833;52.554;13.554;2023-09-12T20:24:00;25.70;72.50
23323;DHT22;11833;52.554;13.554;2023-09-12T20:26:28;25.70;72.40
23323;DHT22;11833;52.554;13.554;2023-09-12T20:28:54;25.70;72.70
23323;DHT22;11833;52.554;13.554;2023-09-12T20:31:20;25.60;72.70
23323;DHT22;11833;52.554;13.554;2023-09-12T20:33:46;25.50;73.00
23323;DHT22;11833;52.554;13.554;2023-09-12T20:36:12;25.40;73.60
23323;DHT22;11833;52.554;13.554;2023-09-12T20:38:47;25.30;73.70
23323;DHT22;11833;52.554;13.554;2023-09-12T20:41:14;25.30;74.60
23323;DHT22;11833;52.554;13.554;2023-09-12T20:43:40;25.30;74.50
23323;DHT22;11833;52.554;13.554;2023-09-12T20:46:06;25.30;74.70
23323;DHT22;11833;52.554;13.554;2023-09-12T20:48:35;25.30;75.00
23323;DHT22;11833;52.554;13.554;2023-09-12T20:51:12;25.30;74.60
23323;DHT22;11833;52.554;13.554;2023-09-12T20:53:40;25.30;74.00
23323;DHT22;11833;52.554;13.554;2023-09-12T20:56:06;25.40;74.60
23323;DHT22;11833;52.554;13.554;2023-09-12T20:58:32;25.30;74.80
23323;DHT22;11833;52.554;13.554;2023-09-12T21:00:58;25.20;75.00
23323;DHT22;11833;52.554;13.554;2023-09-12T21:03:23;25.20;75.60
23323;DHT22;11833;52.554;13.554;2023-09-12T21:05:49;25.10;75.40
23323;DHT22;11833;52.554;13.554;2023-09-12T21:08:15;25.10;75.80
23323;DHT22;11833;52.554;13.554;2023-09-12T21:10:41;25.10;75.80
23323;DHT22;11833;52.554;13.554;2023-09-12T21:13:09;25.10;76.20
23323;DHT22;11833;52.554;13.554;2023-09-12T21:15:35;25.10;76.30
23323;DHT22;11833;52.554;13.554;2023-09-12T21:18:01;25.10;76.50
23323;DHT22;11833;52.554;13.554;2023-09-12T21:20:26;25.10;76.40
23323;DHT22;11833;52.554;13.554;2023-09-12T21:22:52;25.10;76.20
23323;DHT22;11833;52.554;13.554;2023-09-12T21:25:19;25.00;76.30
23323;DHT22;11833;52.554;13.554;2023-09-12T21:27:45;25.00;76.80
23323;DHT22;11833;52.554;13.554;2023-09-12T21:30:11;25.00;78.20
23323;DHT22;11833;52.554;13.554;2023-09-12T21:32:37;25.00;76.50
23323;DHT22;11833;52.554;13.554;2023-09-12T21:35:14;24.90;77.00
23323;DHT22;11833;52.554;13.554;2023-09-12T21:37:42;24.90;76.90
23323;DHT22;11833;52.554;13.554;2023-09-12T21:40:09;24.80;77.00
23323;DHT22;11833;52.554;13.554;2023-09-12T21:42:36;24.70;78.00
23323;DHT22;11833;52.554;13.554;2023-09-12T21:45:03;24.70;77.50
23323;DHT22;11833;52.554;13.554;2023-09-12T21:47:29;24.80;77.70
23323;DHT22;11833;52.554;13.554;2023-09-12T21:49:55;24.90;77.00
23323;DHT22;11833;52.554;13.554;2023-09-12T21:52:21;24.80;77.70
23323;DHT22;11833;52.554;13.554;2023-09-12T21:54:47;24.70;78.00
23323;DHT22;11833;52.554;13.554;2023-09-12T21:57:13;24.50;78.60
23323;DHT22;11833;52.554;13.554;2023-09-12T21:59:39;24.50;79.20
